Time;durP1;ratioP1;P1;durP2;ratioP2;P2;SDS_P1;SDS_P2;PMS_P1;PMS_P2;Temp;Humidity;BMP_temperature;BMP_pressure;BME280_temperature;BME280_humidity;BME280_pressure;Samples;Min_cycle;Max_cycle;Signal;HPM_P1;HPM_P2
2022/12/26 00:01:20;;;;;;;;;;;7.00;91.40;;;;;;5034595;28;19921;-76
2022/12/26 00:03:45;;;;;;;;;;;7.10;91.40;;;;;;5032913;28;20757;-76
2022/12/26 00:06:15;;;;;;;;;;;7.10;91.40;;;;;;5032277;28;19921;-76
2022/12/26 00:08:41;;;;;;;;;;;7.10;91.40;;;;;;5033001;28;19924;-76
2022/12/26 00:11:06;;;;;;;;;;;7.20;91.40;;;;;;5015933;28;20007;-75
2022/12/26 00:13:31;;;;;;;;;;;7.20;91.40;;;;;;5033489;28;19921;-76
2022/12/26 00:15:57;;;;;;;;;;;7.30;91.40;;;;;;5018670;28;19979;-76
2022/12/26 00:18:22;;;;;;;;;;;7.30;91.40;;;;;;5035519;28;19940;-76
2022/12/26 00:20:48;;;;;;;;;;;7.40;91.40;;;;;;5031674;28;19925;-76
2022/12/26 00:23:13;;;;;;;;;;;7.40;91.40;;;;;;5033083;28;19928;-74
2022/12/26 00:25:39;;;;;;;;;;;7.50;91.40;;;;;;5044138;28;20008;-76
2022/12/26 00:28:04;;;;;;;;;;;7.50;91.40;;;;;;5036541;28;19936;-76
2022/12/26 00:30:30;;;;;;;;;;;7.50;91.30;;;;;;5035521;28;19920;-76
2022/12/26 00:32:55;;;;;;;;;;;7.50;91.30;;;;;;5036816;28;19917;-76
2022/12/26 00:35:21;;;;;;;;;;;7.50;91.30;;;;;;5054278;28;19925;-76
2022/12/26 00:37:46;;;;;;;;;;;7.50;91.30;;;;;;5033679;28;19921;-76
2022/12/26 00:40:12;;;;;;;;;;;7.40;91.30;;;;;;5035399;28;19955;-76
2022/12/26 00:42:37;;;;;;;;;;;7.40;91.30;;;;;;5022791;28;20031;-76
2022/12/26 00:45:03;;;;;;;;;;;7.40;91.30;;;;;;5038088;28;20588;-76
2022/12/26 00:47:28;;;;;;;;;;;7.40;91.30;;;;;;5037568;28;20038;-75
2022/12/26 00:49:53;;;;;;;;;;;7.40;91.30;;;;;;5039017;28;19947;-76
2022/12/26 00:52:19;;;;;;;;;;;7.40;91.30;;;;;;5055912;28;20011;-76
2022/12/26 00:54:44;;;;;;;;;;;7.50;91.30;;;;;;5018786;28;19925;-76
2022/12/26 00:57:10;;;;;;;;;;;7.50;91.40;;;;;;5036130;28;20010;-76
2022/12/26 00:59:35;;;;;;;;;;;7.50;91.40;;;;;;5036903;28;19920;-75
2022/12/26 01:02:36;;;;;;;;;;;7.50;91.40;;;;;;5038095;28;19925;-76
2022/12/26 01:04:46;;;;;;;;;;;7.60;91.40;;;;;;5048150;28;19973;-76
2022/12/26 01:07:12;;;;;;;;;;;7.70;91.40;;;;;;5039051;28;19920;-75
2022/12/26 01:09:37;;;;;;;;;;;7.70;91.30;;;;;;5036929;28;20418;-76
2022/12/26 01:12:03;;;;;;;;;;;7.70;91.30;;;;;;5037509;28;19975;-76
2022/12/26 01:14:28;;;;;;;;;;;7.70;91.30;;;;;;5050423;28;19928;-76
2022/12/26 01:16:54;;;;;;;;;;;7.70;91.30;;;;;;5037539;28;19935;-76
2022/12/26 01:19:19;;;;;;;;;;;7.70;91.30;;;;;;5051104;28;19928;-75
2022/12/26 01:21:44;;;;;;;;;;;7.70;91.30;;;;;;5035889;28;19920;-76
2022/12/26 01:24:10;;;;;;;;;;;7.80;91.30;;;;;;5034581;28;19928;-76
2022/12/26 01:26:36;;;;;;;;;;;7.80;91.30;;;;;;5036079;28;20020;-75
2022/12/26 01:29:01;;;;;;;;;;;7.90;91.30;;;;;;5037894;28;20494;-76
2022/12/26 01:31:26;;;;;;;;;;;7.90;91.40;;;;;;5053258;28;19925;-75
2022/12/26 01:33:52;;;;;;;;;;;8.00;91.40;;;;;;5019165;28;19932;-77
2022/12/26 01:36:17;;;;;;;;;;;8.00;91.30;;;;;;5036417;28;19924;-75
2022/12/26 01:38:43;;;;;;;;;;;8.20;91.40;;;;;;5034190;28;20291;-76
2022/12/26 01:41:20;;;;;;;;;;;8.20;91.30;;;;;;5036540;28;19920;-74
2022/12/26 01:43:55;;;;;;;;;;;8.30;91.30;;;;;;5035403;28;19924;-76
2022/12/26 01:46:31;;;;;;;;;;;8.40;91.30;;;;;;5039144;28;19920;-76
2022/12/26 01:48:58;;;;;;;;;;;8.50;91.20;;;;;;5037602;28;19920;-76
2022/12/26 01:51:24;;;;;;;;;;;8.50;91.20;;;;;;5038066;28;19920;-75
2022/12/26 01:53:50;;;;;;;;;;;8.50;91.20;;;;;;5016613;28;19928;-76
2022/12/26 01:56:36;;;;;;;;;;;8.50;91.10;;;;;;5037239;28;19924;-76
2022/12/26 01:59:04;;;;;;;;;;;8.60;91.20;;;;;;5053858;28;21093;-75
2022/12/26 02:01:30;;;;;;;;;;;8.60;91.20;;;;;;5034473;28;19924;-76
2022/12/26 02:06:40;;;;;;;;;;;8.80;91.20;;;;;;5049187;28;19923;-76
2022/12/26 02:09:05;;;;;;;;;;;8.90;91.20;;;;;;5036188;28;19924;-76
2022/12/26 02:11:38;;;;;;;;;;;8.90;91.10;;;;;;5051505;28;20015;-77
2022/12/26 02:14:06;;;;;;;;;;;9.00;91.10;;;;;;5035653;28;19936;-77
2022/12/26 02:16:32;;;;;;;;;;;9.00;91.10;;;;;;5034662;28;19983;-76
2022/12/26 02:18:57;;;;;;;;;;;9.10;91.10;;;;;;5034453;28;20432;-76
2022/12/26 02:21:48;;;;;;;;;;;9.10;91.00;;;;;;5034743;28;20400;-76
2022/12/26 02:24:22;;;;;;;;;;;9.10;91.00;;;;;;5034446;28;19923;-76
2022/12/26 02:26:54;;;;;;;;;;;9.20;91.00;;;;;;5032558;28;19974;-76
2022/12/26 02:29:25;;;;;;;;;;;9.20;91.00;;;;;;5034834;28;19920;-75
2022/12/26 02:32:07;;;;;;;;;;;9.20;91.00;;;;;;5035952;28;19924;-76
2022/12/26 02:34:36;;;;;;;;;;;9.30;91.00;;;;;;5052024;28;20599;-76
2022/12/26 02:37:34;;;;;;;;;;;9.40;91.00;;;;;;5027387;28;19921;-75
2022/12/26 02:40:18;;;;;;;;;;;9.40;91.00;;;;;;5007045;28;20355;-75
2022/12/26 02:43:10;;;;;;;;;;;9.40;90.90;;;;;;5033145;28;19920;-77
2022/12/26 02:48:38;;;;;;;;;;;9.50;91.00;;;;;;5037405;28;19931;-76
2022/12/26 03:13:41;;;;;;;;;;;9.70;90.90;;;;;;5034045;28;20049;-76
2022/12/26 03:18:52;;;;;;;;;;;9.70;90.90;;;;;;5031271;28;19924;-76
2022/12/26 03:21:19;;;;;;;;;;;9.70;90.90;;;;;;5032740;28;19921;-75
2022/12/26 03:23:45;;;;;;;;;;;9.70;90.90;;;;;;5034067;28;20012;-75
2022/12/26 03:30:47;;;;;;;;;;;9.80;90.90;;;;;;5031390;28;19925;-76
2022/12/26 03:31:44;;;;;;;;;;;9.80;90.90;;;;;;5033988;28;19986;-76
2022/12/26 03:34:18;;;;;;;;;;;9.80;90.90;;;;;;5032236;28;20395;-75
2022/12/26 03:37:02;;;;;;;;;;;9.90;90.90;;;;;;5018433;28;19921;-75
2022/12/26 04:46:18;;;;;;;;;;;9.90;90.80;;;;;;5031655;28;19928;-76
2022/12/26 04:51:28;;;;;;;;;;;9.80;90.70;;;;;;5021107;28;19950;-76
2022/12/26 04:53:53;;;;;;;;;;;9.70;90.70;;;;;;5029209;28;20395;-76
2022/12/26 04:56:18;;;;;;;;;;;9.70;90.70;;;;;;5015882;28;19920;-76
2022/12/26 04:58:44;;;;;;;;;;;9.60;90.80;;;;;;5032071;28;20764;-76
2022/12/26 05:09:33;;;;;;;;;;;9.40;90.80;;;;;;5031834;28;19927;-76
2022/12/26 05:12:02;;;;;;;;;;;9.40;90.80;;;;;;5034171;28;19944;-76
2022/12/26 05:14:30;;;;;;;;;;;9.40;90.90;;;;;;5032189;28;19929;-74
2022/12/26 05:30:40;;;;;;;;;;;9.20;90.90;;;;;;5046804;28;20496;-76
2022/12/26 05:35:49;;;;;;;;;;;9.20;90.90;;;;;;5046890;28;20890;-76
2022/12/26 05:38:15;;;;;;;;;;;9.20;90.90;;;;;;5031986;28;19928;-76
2022/12/26 05:40:40;;;;;;;;;;;9.10;90.90;;;;;;5030740;28;20506;-77
2022/12/26 05:43:06;;;;;;;;;;;9.10;90.90;;;;;;5033082;28;19927;-76
2022/12/26 05:45:31;;;;;;;;;;;9.10;90.90;;;;;;5034268;28;20459;-76
2022/12/26 05:48:00;;;;;;;;;;;9.10;90.90;;;;;;5035146;28;19960;-75
2022/12/26 05:50:25;;;;;;;;;;;9.00;90.90;;;;;;5032039;28;20442;-75
2022/12/26 05:52:51;;;;;;;;;;;9.00;90.90;;;;;;5050313;28;19936;-76
2022/12/26 05:55:16;;;;;;;;;;;9.00;90.90;;;;;;5032146;28;19925;-76
2022/12/26 05:57:42;;;;;;;;;;;9.00;91.00;;;;;;5034330;28;20549;-77
2022/12/26 06:00:08;;;;;;;;;;;9.10;91.00;;;;;;5034865;28;19917;-75
2022/12/26 06:02:33;;;;;;;;;;;9.10;91.00;;;;;;5034459;28;19967;-76
2022/12/26 06:04:59;;;;;;;;;;;9.10;91.00;;;;;;5032597;28;19973;-76
2022/12/26 06:07:24;;;;;;;;;;;9.10;91.00;;;;;;5035686;28;19921;-76
2022/12/26 06:09:49;;;;;;;;;;;9.20;91.00;;;;;;5035988;28;20145;-76
2022/12/26 06:12:15;;;;;;;;;;;9.20;91.00;;;;;;5035294;28;20839;-76
2022/12/26 06:14:40;;;;;;;;;;;9.20;91.00;;;;;;5034171;28;19968;-76
2022/12/26 06:17:06;;;;;;;;;;;9.20;91.00;;;;;;5036861;28;19921;-76
2022/12/26 06:19:31;;;;;;;;;;;9.20;91.00;;;;;;5017575;28;20305;-76
2022/12/26 06:21:57;;;;;;;;;;;9.20;91.00;;;;;;5034952;28;19927;-74
2022/12/26 06:24:22;;;;;;;;;;;9.20;90.90;;;;;;5036466;28;19925;-75
2022/12/26 06:26:48;;;;;;;;;;;9.30;91.00;;;;;;5049233;28;19924;-76
2022/12/26 06:29:14;;;;;;;;;;;9.20;90.90;;;;;;5016959;28;19939;-76
2022/12/26 06:31:39;;;;;;;;;;;9.30;91.00;;;;;;5047549;28;20302;-76
2022/12/26 06:34:04;;;;;;;;;;;9.30;91.00;;;;;;5016043;28;19932;-75
2022/12/26 06:36:30;;;;;;;;;;;9.30;90.90;;;;;;5020869;28;20019;-75
2022/12/26 06:38:56;;;;;;;;;;;9.30;90.90;;;;;;5020404;28;20690;-76
2022/12/26 06:41:22;;;;;;;;;;;9.30;90.90;;;;;;5033557;28;19920;-76
2022/12/26 06:43:47;;;;;;;;;;;9.30;90.90;;;;;;5020057;28;20442;-76
2022/12/26 06:46:18;;;;;;;;;;;9.30;90.90;;;;;;5033132;28;19928;-76
2022/12/26 06:48:43;;;;;;;;;;;9.20;90.90;;;;;;5034181;28;19928;-76
2022/12/26 06:51:10;;;;;;;;;;;9.20;90.90;;;;;;5034333;28;19921;-74
2022/12/26 06:53:36;;;;;;;;;;;9.20;90.90;;;;;;5035477;28;19982;-76
2022/12/26 06:56:05;;;;;;;;;;;9.20;90.90;;;;;;5033237;28;19928;-76
2022/12/26 06:58:30;;;;;;;;;;;9.20;91.00;;;;;;5050616;28;19928;-74
2022/12/26 07:01:02;;;;;;;;;;;9.10;91.00;;;;;;5034970;28;21552;-76
2022/12/26 07:03:28;;;;;;;;;;;9.10;91.00;;;;;;5036094;28;19921;-76
2022/12/26 07:05:53;;;;;;;;;;;9.10;91.00;;;;;;5034247;28;19928;-76
2022/12/26 07:08:19;;;;;;;;;;;9.10;91.00;;;;;;5044029;28;20000;-76
2022/12/26 07:10:44;;;;;;;;;;;9.10;91.00;;;;;;5049561;28;20008;-76
2022/12/26 07:13:09;;;;;;;;;;;9.10;91.00;;;;;;5033298;28;19979;-75
2022/12/26 07:15:35;;;;;;;;;;;9.10;91.00;;;;;;5015471;28;19928;-77
2022/12/26 07:18:00;;;;;;;;;;;9.10;91.00;;;;;;5034775;28;20512;-75
2022/12/26 07:20:26;;;;;;;;;;;9.20;91.00;;;;;;5032583;28;20007;-76
2022/12/26 07:22:52;;;;;;;;;;;9.10;91.00;;;;;;5033112;28;19925;-76
2022/12/26 07:25:18;;;;;;;;;;;9.10;91.00;;;;;;5032102;28;19924;-77
2022/12/26 07:27:43;;;;;;;;;;;9.20;91.00;;;;;;5033046;28;19932;-76
2022/12/26 07:30:09;;;;;;;;;;;9.10;91.00;;;;;;5016745;28;19920;-74
2022/12/26 07:32:34;;;;;;;;;;;9.20;91.00;;;;;;5031923;28;20004;-77
2022/12/26 07:35:00;;;;;;;;;;;9.20;91.00;;;;;;5034619;28;20584;-75
2022/12/26 07:37:25;;;;;;;;;;;9.20;91.00;;;;;;5027391;28;19920;-76
2022/12/26 07:39:51;;;;;;;;;;;9.20;91.00;;;;;;5015263;28;20398;-77
2022/12/26 07:42:18;;;;;;;;;;;9.20;91.00;;;;;;5032898;28;19921;-76
2022/12/26 07:44:43;;;;;;;;;;;9.20;91.00;;;;;;5034609;28;19928;-76
2022/12/26 07:47:09;;;;;;;;;;;9.20;91.00;;;;;;5034677;28;19921;-74
2022/12/26 07:49:34;;;;;;;;;;;9.20;91.00;;;;;;5035164;28;20363;-76
2022/12/26 07:52:01;;;;;;;;;;;9.20;91.00;;;;;;5033156;28;19948;-76
2022/12/26 07:54:28;;;;;;;;;;;9.20;91.00;;;;;;5048887;28;19987;-77
2022/12/26 07:56:54;;;;;;;;;;;9.20;91.00;;;;;;5035492;28;20306;-77
2022/12/26 07:59:20;;;;;;;;;;;9.30;91.00;;;;;;5049052;28;19971;-77
2022/12/26 08:01:45;;;;;;;;;;;9.30;91.00;;;;;;5033075;28;19960;-77
2022/12/26 08:04:11;;;;;;;;;;;9.30;91.00;;;;;;5033756;28;20302;-77
2022/12/26 08:06:37;;;;;;;;;;;9.20;91.00;;;;;;5034380;28;19975;-77
2022/12/26 08:09:02;;;;;;;;;;;9.30;91.00;;;;;;5034554;28;20426;-75
2022/12/26 08:11:28;;;;;;;;;;;9.20;91.00;;;;;;5033491;28;19986;-77
2022/12/26 08:13:56;;;;;;;;;;;9.30;91.00;;;;;;5032513;28;21279;-77
2022/12/26 08:16:21;;;;;;;;;;;9.30;91.00;;;;;;5032845;28;19944;-77
2022/12/26 08:18:47;;;;;;;;;;;9.30;91.00;;;;;;5011942;28;20520;-77
2022/12/26 08:21:12;;;;;;;;;;;9.30;91.00;;;;;;5033854;28;19964;-77
2022/12/26 08:23:37;;;;;;;;;;;9.30;91.00;;;;;;5017341;28;19923;-77
2022/12/26 08:26:06;;;;;;;;;;;9.30;91.00;;;;;;5019153;28;20290;-77
2022/12/26 08:28:32;;;;;;;;;;;9.30;91.00;;;;;;5032197;28;19943;-77
2022/12/26 08:30:58;;;;;;;;;;;9.30;91.00;;;;;;5032424;28;19925;-76
2022/12/26 08:33:24;;;;;;;;;;;9.30;91.00;;;;;;5034268;28;22100;-76
2022/12/26 08:35:49;;;;;;;;;;;9.40;91.00;;;;;;5031946;28;19936;-77
2022/12/26 08:38:14;;;;;;;;;;;9.40;91.00;;;;;;5032377;28;19921;-76
2022/12/26 08:40:40;;;;;;;;;;;9.40;91.00;;;;;;5032419;28;20011;-76
2022/12/26 08:43:06;;;;;;;;;;;9.50;91.00;;;;;;5033914;28;19931;-75
2022/12/26 08:45:31;;;;;;;;;;;9.50;91.00;;;;;;5033254;28;19983;-77
2022/12/26 08:47:58;;;;;;;;;;;9.50;91.00;;;;;;5034095;28;19925;-74
2022/12/26 08:50:24;;;;;;;;;;;9.50;91.00;;;;;;5047845;28;20486;-77
2022/12/26 08:52:49;;;;;;;;;;;9.50;91.00;;;;;;5037351;28;20047;-77
2022/12/26 08:55:15;;;;;;;;;;;9.50;91.00;;;;;;5021832;28;19931;-76
2022/12/26 08:57:40;;;;;;;;;;;9.60;91.00;;;;;;5036382;28;19920;-77
2022/12/26 09:00:06;;;;;;;;;;;9.60;91.00;;;;;;5037862;28;19927;-75
2022/12/26 09:02:32;;;;;;;;;;;9.60;91.00;;;;;;5051057;28;19928;-77
2022/12/26 09:04:57;;;;;;;;;;;9.70;91.00;;;;;;5038264;28;20299;-76
2022/12/26 09:07:23;;;;;;;;;;;9.70;91.00;;;;;;5035797;28;19921;-76
2022/12/26 09:09:49;;;;;;;;;;;9.70;91.00;;;;;;5037858;28;19924;-77
2022/12/26 09:12:14;;;;;;;;;;;9.80;91.40;;;;;;5037466;28;19936;-77
2022/12/26 09:14:40;;;;;;;;;;;9.80;91.00;;;;;;5021884;28;20025;-77
2022/12/26 09:17:05;;;;;;;;;;;9.80;91.00;;;;;;5033892;28;19921;-77
2022/12/26 09:19:31;;;;;;;;;;;9.90;91.00;;;;;;5017755;28;19925;-76
2022/12/26 09:24:41;;;;;;;;;;;9.90;91.00;;;;;;5035801;28;19932;-76
2022/12/26 09:27:06;;;;;;;;;;;10.00;91.00;;;;;;5030043;28;19924;-76
2022/12/26 09:29:32;;;;;;;;;;;10.00;91.00;;;;;;5051680;28;19924;-76
2022/12/26 09:31:57;;;;;;;;;;;10.00;90.90;;;;;;5038270;28;20474;-76
2022/12/26 09:34:23;;;;;;;;;;;10.10;91.00;;;;;;5037351;28;19921;-76
2022/12/26 09:36:48;;;;;;;;;;;10.10;90.90;;;;;;5037465;28;19994;-77
2022/12/26 09:39:13;;;;;;;;;;;10.10;90.90;;;;;;5033202;28;19968;-75
2022/12/26 09:41:46;;;;;;;;;;;10.10;90.90;;;;;;5021334;28;20386;-77
2022/12/26 09:44:11;;;;;;;;;;;10.20;91.30;;;;;;5036216;28;19921;-76
2022/12/26 09:46:39;;;;;;;;;;;10.20;90.90;;;;;;5037206;28;19925;-77
2022/12/26 09:49:08;;;;;;;;;;;10.20;90.90;;;;;;5037179;28;19928;-77
2022/12/26 09:51:34;;;;;;;;;;;10.30;90.90;;;;;;5033008;28;19923;-77
2022/12/26 09:54:00;;;;;;;;;;;10.30;90.90;;;;;;5036936;28;19924;-77
2022/12/26 09:56:25;;;;;;;;;;;10.30;90.90;;;;;;5028866;28;19921;-77
2022/12/26 09:58:52;;;;;;;;;;;10.30;90.90;;;;;;5034283;28;20610;-77
2022/12/26 10:01:19;;;;;;;;;;;10.30;90.90;;;;;;5032736;28;20469;-77
2022/12/26 10:03:48;;;;;;;;;;;10.40;90.90;;;;;;5034578;28;19921;-77
2022/12/26 10:06:14;;;;;;;;;;;10.40;90.90;;;;;;5035527;28;19921;-77
2022/12/26 10:08:45;;;;;;;;;;;10.40;90.80;;;;;;5035616;28;19925;-77
2022/12/26 10:11:33;;;;;;;;;;;10.40;90.80;;;;;;5035312;28;19928;-77
2022/12/26 10:14:03;;;;;;;;;;;10.40;90.80;;;;;;5024146;28;19932;-77
2022/12/26 10:16:41;;;;;;;;;;;10.40;90.80;;;;;;5034682;28;20043;-77
2022/12/26 10:19:07;;;;;;;;;;;10.40;90.80;;;;;;5033090;28;19931;-77
2022/12/26 10:21:51;;;;;;;;;;;10.50;90.80;;;;;;5034208;28;19920;-77
2022/12/26 10:24:20;;;;;;;;;;;10.50;90.80;;;;;;5032585;28;21502;-77
2022/12/26 10:26:48;;;;;;;;;;;10.50;90.80;;;;;;5037765;28;19963;-75
2022/12/26 10:29:21;;;;;;;;;;;10.50;90.80;;;;;;5018156;28;19932;-77
2022/12/26 10:31:48;;;;;;;;;;;10.50;90.80;;;;;;5034173;28;20047;-77
2022/12/26 10:34:16;;;;;;;;;;;10.50;90.80;;;;;;5029860;28;19925;-77
2022/12/26 10:36:43;;;;;;;;;;;10.50;90.80;;;;;;5035332;28;19925;-77
2022/12/26 10:39:12;;;;;;;;;;;10.60;90.80;;;;;;5048082;28;20051;-75
2022/12/26 10:41:39;;;;;;;;;;;10.60;90.80;;;;;;5035793;28;19932;-77
2022/12/26 10:44:05;;;;;;;;;;;10.60;90.80;;;;;;5034885;28;20446;-77
2022/12/26 10:46:38;;;;;;;;;;;10.60;90.80;;;;;;5033817;28;19932;-76
2022/12/26 10:49:04;;;;;;;;;;;10.60;90.90;;;;;;5033307;28;20306;-77
2022/12/26 10:51:29;;;;;;;;;;;10.60;90.80;;;;;;5034265;28;20383;-75
2022/12/26 10:53:55;;;;;;;;;;;10.60;90.80;;;;;;5034755;28;19920;-77
2022/12/26 10:56:21;;;;;;;;;;;10.60;90.80;;;;;;5052208;28;19970;-77
2022/12/26 10:58:48;;;;;;;;;;;10.60;90.80;;;;;;5033352;28;20372;-76
2022/12/26 11:01:46;;;;;;;;;;;10.70;90.80;;;;;;5033525;28;20070;-76
2022/12/26 11:04:14;;;;;;;;;;;10.70;90.80;;;;;;5026844;28;19959;-77
2022/12/26 11:06:40;;;;;;;;;;;10.60;90.80;;;;;;5033264;28;19931;-77
2022/12/26 11:09:05;;;;;;;;;;;10.70;90.80;;;;;;5019095;28;19921;-76
2022/12/26 11:11:46;;;;;;;;;;;10.70;90.80;;;;;;5048061;28;20151;-77
2022/12/26 11:14:25;;;;;;;;;;;10.70;90.80;;;;;;5033654;28;19935;-77
2022/12/26 11:16:51;;;;;;;;;;;10.70;90.80;;;;;;5034701;28;20433;-77
2022/12/26 11:19:26;;;;;;;;;;;10.70;90.80;;;;;;5048688;28;19925;-76
2022/12/26 11:21:52;;;;;;;;;;;10.70;90.80;;;;;;5031726;28;19948;-76
2022/12/26 11:24:18;;;;;;;;;;;10.70;90.80;;;;;;5014698;28;19921;-77
2022/12/26 11:26:44;;;;;;;;;;;10.70;90.80;;;;;;5049432;28;19921;-75
2022/12/26 11:29:16;;;;;;;;;;;10.70;90.80;;;;;;5036748;28;19960;-75
2022/12/26 11:31:42;;;;;;;;;;;10.70;90.80;;;;;;5033726;28;19921;-77
2022/12/26 11:34:14;;;;;;;;;;;10.70;90.80;;;;;;5031528;28;20582;-75
2022/12/26 11:36:43;;;;;;;;;;;10.70;90.80;;;;;;5030879;28;20344;-77
2022/12/26 11:39:22;;;;;;;;;;;10.80;90.80;;;;;;5036486;28;20406;-75
2022/12/26 11:41:48;;;;;;;;;;;10.80;90.80;;;;;;5031577;28;19936;-76
2022/12/26 11:44:15;;;;;;;;;;;10.70;90.70;;;;;;5033472;28;20546;-77
2022/12/26 11:46:58;;;;;;;;;;;10.70;90.80;;;;;;5035689;28;20664;-76
2022/12/26 11:49:28;;;;;;;;;;;10.80;90.80;;;;;;5032152;28;19921;-77
2022/12/26 11:51:54;;;;;;;;;;;10.80;90.80;;;;;;5034951;28;19960;-77
2022/12/26 11:54:22;;;;;;;;;;;10.80;90.80;;;;;;5047722;28;19979;-77
2022/12/26 11:56:48;;;;;;;;;;;10.80;90.80;;;;;;5051356;28;19917;-77
2022/12/26 11:59:17;;;;;;;;;;;10.80;90.80;;;;;;5033676;28;19928;-77
2022/12/26 12:01:43;;;;;;;;;;;10.80;90.80;;;;;;5047677;28;19921;-78
2022/12/26 12:04:08;;;;;;;;;;;10.80;90.80;;;;;;5035027;28;19996;-76
2022/12/26 12:06:36;;;;;;;;;;;10.80;90.80;;;;;;5035561;28;19921;-78
2022/12/26 12:09:20;;;;;;;;;;;10.80;90.80;;;;;;5033104;28;19928;-76
2022/12/26 12:12:06;;;;;;;;;;;10.70;90.70;;;;;;5034020;28;19927;-76
2022/12/26 12:14:50;;;;;;;;;;;10.70;90.80;;;;;;5027241;28;19995;-77
2022/12/26 12:17:18;;;;;;;;;;;10.70;90.80;;;;;;5036666;28;19921;-77
2022/12/26 12:19:47;;;;;;;;;;;10.70;90.80;;;;;;5033145;28;19920;-78
2022/12/26 12:22:23;;;;;;;;;;;10.70;90.80;;;;;;5048289;28;19931;-77
2022/12/26 12:24:51;;;;;;;;;;;10.70;90.80;;;;;;5031242;28;20545;-77
2022/12/26 12:27:19;;;;;;;;;;;10.70;90.80;;;;;;5035501;28;20712;-75
2022/12/26 12:30:04;;;;;;;;;;;10.70;90.80;;;;;;5035310;28;20007;-77
2022/12/26 12:32:52;;;;;;;;;;;10.70;90.80;;;;;;5048300;28;20007;-74
2022/12/26 12:35:23;;;;;;;;;;;10.70;90.80;;;;;;5022578;28;20379;-75
2022/12/26 12:37:55;;;;;;;;;;;10.70;90.80;;;;;;5031427;28;19919;-76
2022/12/26 12:40:28;;;;;;;;;;;10.70;90.80;;;;;;5034954;28;19924;-76
2022/12/26 12:43:02;;;;;;;;;;;10.70;90.80;;;;;;5032467;28;19988;-78
2022/12/26 12:45:46;;;;;;;;;;;10.70;90.80;;;;;;5032491;28;19953;-77
2022/12/26 12:48:21;;;;;;;;;;;10.70;90.80;;;;;;5036311;28;19979;-77
2022/12/26 12:50:50;;;;;;;;;;;10.70;90.80;;;;;;5037750;28;19927;-77
2022/12/26 12:53:30;;;;;;;;;;;10.70;90.80;;;;;;5037256;28;19967;-77
2022/12/26 12:56:14;;;;;;;;;;;10.70;90.80;;;;;;5038969;28;19982;-78
2022/12/26 12:58:49;;;;;;;;;;;10.70;90.80;;;;;;5040276;28;19921;-77
2022/12/26 13:01:16;;;;;;;;;;;10.70;90.80;;;;;;5049487;28;20286;-77
2022/12/26 13:03:56;;;;;;;;;;;10.70;90.80;;;;;;5036221;28;19967;-77
2022/12/26 13:06:29;;;;;;;;;;;10.70;90.80;;;;;;5020995;28;19924;-77
2022/12/26 13:08:59;;;;;;;;;;;10.70;90.80;;;;;;5019155;28;20016;-77
2022/12/26 13:11:26;;;;;;;;;;;10.70;90.80;;;;;;5035430;28;20008;-76
2022/12/26 13:13:53;;;;;;;;;;;10.70;90.90;;;;;;5020783;28;19925;-78
2022/12/26 13:16:24;;;;;;;;;;;10.70;90.80;;;;;;5037706;28;19921;-77
2022/12/26 13:18:50;;;;;;;;;;;10.70;90.80;;;;;;5036519;28;20300;-78
2022/12/26 13:21:16;;;;;;;;;;;10.70;90.80;;;;;;5027018;28;19924;-77
2022/12/26 13:26:40;;;;;;;;;;;10.70;90.80;;;;;;5040150;28;19927;-77
2022/12/26 13:29:19;;;;;;;;;;;10.70;90.80;;;;;;5025392;28;19968;-77
2022/12/26 13:31:44;;;;;;;;;;;10.70;90.80;;;;;;5036199;28;19921;-77
2022/12/26 13:34:13;;;;;;;;;;;10.70;90.80;;;;;;5038912;28;19928;-77
2022/12/26 13:36:46;;;;;;;;;;;10.70;90.80;;;;;;5035836;28;19971;-77
2022/12/26 13:39:11;;;;;;;;;;;10.70;90.80;;;;;;5037294;28;19932;-77
2022/12/26 13:44:23;;;;;;;;;;;10.70;90.80;;;;;;5039651;28;20019;-75
2022/12/26 13:46:48;;;;;;;;;;;10.70;90.80;;;;;;5054662;28;20370;-77
2022/12/26 13:49:26;;;;;;;;;;;10.70;90.80;;;;;;5041513;28;19925;-77
2022/12/26 13:51:52;;;;;;;;;;;10.70;90.80;;;;;;5037507;28;19931;-76
2022/12/26 13:54:17;;;;;;;;;;;10.70;90.80;;;;;;5056367;28;20371;-78
2022/12/26 13:56:43;;;;;;;;;;;10.70;90.80;;;;;;5022370;28;19920;-78
2022/12/26 13:59:26;;;;;;;;;;;10.70;90.80;;;;;;5037941;28;20004;-77
2022/12/26 14:02:03;;;;;;;;;;;10.70;90.80;;;;;;5038904;28;19947;-77
2022/12/26 14:04:38;;;;;;;;;;;10.70;90.80;;;;;;5053380;28;20311;-75
2022/12/26 14:07:13;;;;;;;;;;;10.70;90.80;;;;;;5038825;28;20005;-77
2022/12/26 14:09:47;;;;;;;;;;;10.70;90.80;;;;;;5036176;28;20445;-76
2022/12/26 14:12:19;;;;;;;;;;;10.70;90.80;;;;;;5038177;28;19920;-77
2022/12/26 14:15:03;;;;;;;;;;;10.70;90.80;;;;;;5038592;28;20486;-77
2022/12/26 14:17:46;;;;;;;;;;;10.70;90.80;;;;;;5027712;28;19925;-78
2022/12/26 14:20:21;;;;;;;;;;;10.70;90.80;;;;;;5036222;28;19925;-77
2022/12/26 14:22:53;;;;;;;;;;;10.70;90.80;;;;;;5034372;28;19921;-77
2022/12/26 14:25:21;;;;;;;;;;;10.70;90.80;;;;;;5036914;28;19959;-77
2022/12/26 14:27:54;;;;;;;;;;;10.70;90.80;;;;;;5035953;28;19928;-78
2022/12/26 14:30:25;;;;;;;;;;;10.70;90.80;;;;;;5037442;28;19921;-76
2022/12/26 14:32:59;;;;;;;;;;;10.70;90.80;;;;;;5053583;28;19924;-76
2022/12/26 14:35:27;;;;;;;;;;;10.70;90.80;;;;;;5036272;28;19990;-75
2022/12/26 14:38:01;;;;;;;;;;;10.70;90.90;;;;;;5034246;28;19928;-76
2022/12/26 14:40:30;;;;;;;;;;;10.70;90.80;;;;;;5032377;28;20569;-77
2022/12/26 14:43:11;;;;;;;;;;;10.70;90.80;;;;;;5035156;28;20000;-77
2022/12/26 14:45:39;;;;;;;;;;;10.70;90.80;;;;;;5028122;28;19974;-77
2022/12/26 14:48:16;;;;;;;;;;;10.70;90.80;;;;;;5036924;28;19921;-78
2022/12/26 14:50:42;;;;;;;;;;;10.60;90.80;;;;;;5035055;28;19928;-75
2022/12/26 14:53:20;;;;;;;;;;;10.60;90.80;;;;;;5034617;28;19921;-77
2022/12/26 14:55:47;;;;;;;;;;;10.60;90.80;;;;;;5054051;28;20433;-77
2022/12/26 14:58:23;;;;;;;;;;;10.60;90.80;;;;;;5018190;28;19921;-77
2022/12/26 15:00:49;;;;;;;;;;;10.60;90.90;;;;;;5035149;28;20021;-77
2022/12/26 15:03:18;;;;;;;;;;;10.60;90.90;;;;;;5036149;28;20450;-77
2022/12/26 15:05:44;;;;;;;;;;;10.60;90.90;;;;;;5032437;28;19921;-77
2022/12/26 15:08:28;;;;;;;;;;;10.60;90.90;;;;;;5034891;28;19921;-76
2022/12/26 15:11:06;;;;;;;;;;;10.60;90.90;;;;;;5036183;28;19925;-77
2022/12/26 15:13:35;;;;;;;;;;;10.50;90.80;;;;;;5017720;28;19917;-77
2022/12/26 15:16:11;;;;;;;;;;;10.50;90.90;;;;;;5037670;28;20418;-77
2022/12/26 15:18:41;;;;;;;;;;;10.50;90.90;;;;;;5020913;28;19938;-77
2022/12/26 15:21:22;;;;;;;;;;;10.50;90.90;;;;;;5038717;28;19920;-77
2022/12/26 15:23:47;;;;;;;;;;;10.50;90.90;;;;;;5034447;28;20011;-77
2022/12/26 15:26:28;;;;;;;;;;;10.50;90.90;;;;;;5052960;28;19917;-77
2022/12/26 15:28:58;;;;;;;;;;;10.50;90.90;;;;;;5036863;28;20015;-77
2022/12/26 15:31:41;;;;;;;;;;;10.50;90.90;;;;;;5033525;28;19979;-77
2022/12/26 15:34:25;;;;;;;;;;;10.50;90.90;;;;;;5033632;28;19921;-77
2022/12/26 15:36:54;;;;;;;;;;;10.40;90.90;;;;;;5051554;28;20383;-77
2022/12/26 15:39:20;;;;;;;;;;;10.40;90.90;;;;;;5030960;28;20416;-77
2022/12/26 15:41:47;;;;;;;;;;;10.40;90.90;;;;;;5035093;28;19921;-77
2022/12/26 15:44:21;;;;;;;;;;;10.40;90.90;;;;;;5019443;28;19924;-77
2022/12/26 15:47:07;;;;;;;;;;;10.40;90.90;;;;;;5034135;28;19999;-77
2022/12/26 15:49:40;;;;;;;;;;;10.40;90.90;;;;;;5031417;28;19916;-77
2022/12/26 15:52:27;;;;;;;;;;;10.40;90.90;;;;;;5037012;28;19925;-77
2022/12/26 15:55:05;;;;;;;;;;;10.30;90.90;;;;;;5050816;28;19931;-76
2022/12/26 15:57:34;;;;;;;;;;;10.40;90.90;;;;;;5033004;28;19936;-75
2022/12/26 16:00:03;;;;;;;;;;;10.40;90.90;;;;;;5008763;28;19921;-77
2022/12/26 16:02:30;;;;;;;;;;;10.40;90.90;;;;;;5032331;28;19960;-76
2022/12/26 16:05:10;;;;;;;;;;;10.30;90.90;;;;;;5052667;28;19921;-77
2022/12/26 16:07:36;;;;;;;;;;;10.30;90.90;;;;;;5032782;28;19975;-77
2022/12/26 16:10:01;;;;;;;;;;;10.30;90.90;;;;;;5039873;28;20634;-77
2022/12/26 16:12:31;;;;;;;;;;;10.30;90.90;;;;;;5055045;28;20093;-77
2022/12/26 16:15:00;;;;;;;;;;;10.30;90.90;;;;;;5031725;28;20394;-77
2022/12/26 16:17:26;;;;;;;;;;;10.30;90.90;;;;;;5048698;28;20371;-77
2022/12/26 16:19:52;;;;;;;;;;;10.30;90.90;;;;;;5035886;28;19924;-77
2022/12/26 16:22:42;;;;;;;;;;;10.30;90.90;;;;;;5051101;28;19921;-77
2022/12/26 16:25:09;;;;;;;;;;;10.30;90.90;;;;;;5035697;28;19921;-77
2022/12/26 16:27:35;;;;;;;;;;;10.30;90.90;;;;;;5034973;28;19979;-77
2022/12/26 16:30:04;;;;;;;;;;;10.30;90.90;;;;;;5037441;28;20391;-77
2022/12/26 16:32:30;;;;;;;;;;;10.20;90.90;;;;;;5051489;28;19928;-75
2022/12/26 16:34:56;;;;;;;;;;;10.20;90.90;;;;;;5036066;28;19929;-77
2022/12/26 16:37:22;;;;;;;;;;;10.20;90.90;;;;;;5035685;28;19925;-77
2022/12/26 16:40:06;;;;;;;;;;;10.20;91.00;;;;;;5048681;28;19921;-77
2022/12/26 16:42:31;;;;;;;;;;;10.20;91.00;;;;;;5033831;28;19920;-75
2022/12/26 16:44:57;;;;;;;;;;;10.20;91.00;;;;;;5033703;28;19920;-77
2022/12/26 16:47:22;;;;;;;;;;;10.10;91.00;;;;;;5035562;28;20298;-77
2022/12/26 16:49:48;;;;;;;;;;;10.10;91.00;;;;;;5034975;28;19921;-77
2022/12/26 16:52:29;;;;;;;;;;;10.10;91.00;;;;;;5034791;28;19967;-77